Time;durP1;ratioP1;P1;durP2;ratioP2;P2;SDS_P1;SDS_P2;PMS_P1;PMS_P2;Temp;Humidity;BMP_temperature;BMP_pressure;BME280_temperature;BME280_humidity;BME280_pressure;Samples;Min_cycle;Max_cycle;Signal;HPM_P1;HPM_P2
2023/12/03 00:00:07;;;;;;;43.70;20.80;;;-0.60;99.90;;;;;;5046690;28;20482;-43
2023/12/03 00:02:34;;;;;;;45.28;19.02;;;-0.60;99.90;;;;;;5048388;28;20033;-45
2023/12/03 00:05:00;;;;;;;50.45;20.75;;;-0.60;99.90;;;;;;5046850;28;20546;-44
2023/12/03 00:07:27;;;;;;;49.00;20.17;;;-0.60;99.90;;;;;;5048064;28;20116;-43
2023/12/03 00:09:53;;;;;;;43.25;20.10;;;-0.60;99.90;;;;;;5046443;28;20029;-47
2023/12/03 00:12:19;;;;;;;46.08;19.35;;;-0.60;99.90;;;;;;5048282;28;20029;-47
2023/12/03 00:14:44;;;;;;;46.95;20.75;;;-0.60;99.90;;;;;;5046781;28;20709;-44
2023/12/03 00:17:10;;;;;;;40.42;19.85;;;-0.60;99.90;;;;;;5048326;28;20021;-45
2023/12/03 00:19:35;;;;;;;56.08;23.42;;;-0.60;99.90;;;;;;5048028;28;20080;-43
2023/12/03 00:22:01;;;;;;;46.28;20.55;;;-0.60;99.90;;;;;;5048135;28;20557;-46
2023/12/03 00:24:27;;;;;;;46.83;19.30;;;-0.60;99.90;;;;;;5047822;28;20025;-43
2023/12/03 00:26:52;;;;;;;50.00;20.58;;;-0.70;99.90;;;;;;5047946;28;20029;-45
2023/12/03 00:29:18;;;;;;;44.47;19.42;;;-0.70;99.90;;;;;;5047692;28;20056;-47
2023/12/03 00:31:44;;;;;;;49.95;22.98;;;-0.60;99.90;;;;;;5048114;28;20105;-47
2023/12/03 00:34:09;;;;;;;42.92;19.42;;;-0.70;99.90;;;;;;5048002;28;20378;-46
2023/12/03 00:36:35;;;;;;;45.53;18.90;;;-0.70;99.90;;;;;;5051866;28;20546;-46
2023/12/03 00:39:01;;;;;;;47.80;21.55;;;-0.70;99.90;;;;;;5043598;28;20044;-47
2023/12/03 00:41:26;;;;;;;48.90;22.38;;;-0.70;99.90;;;;;;5051713;28;20108;-44
2023/12/03 00:43:53;;;;;;;51.15;21.23;;;-0.70;99.90;;;;;;5051592;28;20017;-45
2023/12/03 00:46:19;;;;;;;45.40;20.42;;;-0.70;99.90;;;;;;5051447;28;20025;-45
2023/12/03 00:48:46;;;;;;;54.55;21.75;;;-0.70;99.90;;;;;;5051253;28;20316;-44
2023/12/03 00:51:13;;;;;;;56.63;21.73;;;-0.70;99.90;;;;;;5051371;28;20033;-46
2023/12/03 00:53:38;;;;;;;45.97;20.55;;;-0.70;99.90;;;;;;5051461;28;20146;-44
2023/12/03 00:56:04;;;;;;;56.20;23.20;;;-0.70;99.90;;;;;;5051517;28;20057;-45
2023/12/03 00:58:30;;;;;;;57.53;24.83;;;-0.70;99.90;;;;;;5066588;28;20029;-47
2023/12/03 01:00:56;;;;;;;55.70;23.38;;;-0.70;99.90;;;;;;5051804;28;20535;-45
2023/12/03 01:03:22;;;;;;;65.53;25.92;;;-0.70;99.90;;;;;;5066995;28;20107;-45
2023/12/03 01:05:47;;;;;;;60.08;25.23;;;-0.70;99.90;;;;;;5051112;28;20029;-44
2023/12/03 01:08:13;;;;;;;59.65;24.40;;;-0.60;99.90;;;;;;5050797;28;20021;-44
2023/12/03 01:10:39;;;;;;;58.08;23.23;;;-0.70;99.90;;;;;;5051085;28;20029;-47
2023/12/03 01:13:04;;;;;;;57.45;24.00;;;-0.60;99.90;;;;;;5050984;28;20025;-43
2023/12/03 01:15:30;;;;;;;53.97;21.38;;;-0.70;99.90;;;;;;5051195;28;20025;-44
2023/12/03 01:17:56;;;;;;;62.58;23.35;;;-0.60;99.90;;;;;;5050807;28;20493;-44
2023/12/03 01:20:21;;;;;;;56.10;24.02;;;-0.60;99.90;;;;;;5050786;28;20418;-44
2023/12/03 01:22:47;;;;;;;59.13;23.38;;;-0.60;99.90;;;;;;5050742;28;20050;-43
2023/12/03 01:25:12;;;;;;;57.55;23.92;;;-0.60;99.90;;;;;;5051027;28;20025;-44
2023/12/03 01:27:38;;;;;;;55.50;24.65;;;-0.60;99.90;;;;;;5050671;28;20509;-47
2023/12/03 01:30:04;;;;;;;51.25;22.35;;;-0.60;99.90;;;;;;5050464;28;20052;-44
2023/12/03 01:32:30;;;;;;;61.35;24.35;;;-0.60;99.90;;;;;;5050760;28;20021;-47
2023/12/03 01:34:55;;;;;;;57.50;23.75;;;-0.60;99.90;;;;;;5051003;28;20028;-44
2023/12/03 01:37:21;;;;;;;58.17;23.60;;;-0.60;99.90;;;;;;5050735;28;20509;-46
2023/12/03 01:39:47;;;;;;;55.08;23.05;;;-0.60;99.90;;;;;;5050677;28;20247;-47
2023/12/03 01:42:13;;;;;;;59.13;23.48;;;-0.60;99.90;;;;;;5050530;28;20025;-44
2023/12/03 01:44:38;;;;;;;60.55;25.08;;;-0.60;99.90;;;;;;5050269;28;20126;-44
2023/12/03 01:47:04;;;;;;;59.22;27.05;;;-0.60;99.90;;;;;;5049644;28;20055;-45
2023/12/03 01:49:31;;;;;;;59.03;24.35;;;-0.60;99.90;;;;;;5049990;28;20021;-45
2023/12/03 01:51:57;;;;;;;49.80;21.38;;;-0.60;99.90;;;;;;5050527;28;20071;-43
2023/12/03 01:54:28;;;;;;;55.83;23.20;;;-0.50;99.90;;;;;;5050296;28;20079;-44
2023/12/03 01:56:54;;;;;;;58.03;23.20;;;-0.50;99.90;;;;;;5050317;28;20355;-45
2023/12/03 01:59:21;;;;;;;55.88;23.92;;;-0.60;99.90;;;;;;5048557;28;20056;-44
2023/12/03 02:01:47;;;;;;;62.00;24.50;;;-0.60;99.90;;;;;;5048841;28;20029;-45
2023/12/03 02:04:12;;;;;;;53.88;22.77;;;-0.50;99.90;;;;;;5049975;28;20418;-45
2023/12/03 02:06:38;;;;;;;55.60;23.17;;;-0.50;99.90;;;;;;5049978;28;20068;-45
2023/12/03 02:09:04;;;;;;;55.53;24.80;;;-0.60;99.90;;;;;;5049896;28;20530;-45
2023/12/03 02:11:30;;;;;;;61.63;24.70;;;-0.60;99.90;;;;;;5050277;28;20032;-48
2023/12/03 02:13:56;;;;;;;54.78;22.67;;;-0.50;99.90;;;;;;5050511;28;20017;-44
2023/12/03 02:16:22;;;;;;;50.03;22.17;;;-0.50;99.90;;;;;;5049674;28;20114;-47
2023/12/03 02:18:47;;;;;;;56.05;22.75;;;-0.50;99.90;;;;;;5049468;28;20021;-43
2023/12/03 02:21:13;;;;;;;51.70;22.42;;;-0.50;99.90;;;;;;5065164;28;20036;-43
2023/12/03 02:23:39;;;;;;;57.17;22.88;;;-0.50;99.90;;;;;;5049678;28;20025;-45
2023/12/03 02:26:04;;;;;;;55.10;24.02;;;-0.40;99.90;;;;;;5049909;28;20382;-45
2023/12/03 02:28:30;;;;;;;55.50;22.35;;;-0.40;99.90;;;;;;5049071;28;20033;-46
2023/12/03 02:30:57;;;;;;;52.10;22.67;;;-0.40;99.90;;;;;;5049537;28;20024;-44
2023/12/03 02:33:23;;;;;;;59.53;24.65;;;-0.50;99.90;;;;;;5048824;28;20025;-42
2023/12/03 02:35:49;;;;;;;51.78;23.55;;;-0.40;99.90;;;;;;5049422;28;20021;-44
2023/12/03 02:38:15;;;;;;;56.40;24.75;;;-0.40;99.90;;;;;;5049046;28;20047;-45
2023/12/03 02:40:40;;;;;;;48.85;20.90;;;-0.50;99.90;;;;;;5049665;28;20033;-46
2023/12/03 02:43:06;;;;;;;59.72;24.70;;;-0.50;99.90;;;;;;5049660;28;20433;-46
2023/12/03 02:45:31;;;;;;;51.05;20.92;;;-0.50;99.90;;;;;;5049626;28;20029;-47
2023/12/03 02:47:57;;;;;;;53.78;23.13;;;-0.40;99.90;;;;;;5049234;28;20025;-46
2023/12/03 02:50:23;;;;;;;55.03;22.65;;;-0.40;99.90;;;;;;5049085;28;20393;-45
2023/12/03 02:52:48;;;;;;;57.30;23.80;;;-0.40;99.90;;;;;;5049263;28;20023;-44
2023/12/03 02:55:14;;;;;;;42.78;20.67;;;-0.40;99.90;;;;;;5049425;28;20021;-45
2023/12/03 02:57:39;;;;;;;48.13;22.67;;;-0.40;99.90;;;;;;5049165;28;20021;-45
2023/12/03 03:00:06;;;;;;;52.28;23.10;;;-0.40;99.90;;;;;;5047585;28;20050;-44
2023/12/03 03:02:35;;;;;;;54.08;22.48;;;-0.40;99.90;;;;;;5048834;28;20053;-43
2023/12/03 03:05:01;;;;;;;55.15;23.48;;;-0.40;99.90;;;;;;5049260;28;20521;-44
2023/12/03 03:07:27;;;;;;;55.78;21.95;;;-0.30;99.90;;;;;;5039018;28;20112;-45
2023/12/03 03:09:53;;;;;;;50.05;21.27;;;-0.40;99.90;;;;;;5048556;28;20415;-44
2023/12/03 03:12:18;;;;;;;58.85;23.75;;;-0.40;99.90;;;;;;5041958;28;20026;-45
2023/12/03 03:14:44;;;;;;;47.58;20.48;;;-0.40;99.90;;;;;;5048255;28;20013;-47
2023/12/03 03:17:09;;;;;;;53.95;21.77;;;-0.40;99.90;;;;;;5042927;28;20040;-45
2023/12/03 03:19:35;;;;;;;47.30;21.05;;;-0.30;99.90;;;;;;5045412;28;20117;-43
2023/12/03 03:22:01;;;;;;;48.55;21.63;;;-0.40;99.90;;;;;;5044947;28;20329;-45
2023/12/03 03:24:26;;;;;;;49.85;20.52;;;-0.40;99.90;;;;;;5037629;28;20037;-45
2023/12/03 03:26:52;;;;;;;52.13;23.92;;;-0.30;99.90;;;;;;5048154;28;20029;-43
2023/12/03 03:29:18;;;;;;;51.35;21.20;;;-0.30;99.90;;;;;;5048114;28;20051;-44
2023/12/03 03:31:44;;;;;;;49.75;21.90;;;-0.40;99.90;;;;;;5048886;28;20039;-45
2023/12/03 03:34:10;;;;;;;50.55;21.77;;;-0.30;99.90;;;;;;5048712;28;20053;-44
2023/12/03 03:36:36;;;;;;;45.97;20.88;;;-0.30;99.90;;;;;;5048831;28;20122;-46
2023/12/03 03:39:01;;;;;;;48.90;20.52;;;-0.30;99.90;;;;;;5048544;28;20563;-45
2023/12/03 03:41:27;;;;;;;51.78;21.27;;;-0.30;99.90;;;;;;5048723;28;20363;-45
2023/12/03 03:43:52;;;;;;;55.50;22.77;;;-0.30;99.90;;;;;;5048636;28;20029;-45
2023/12/03 03:46:18;;;;;;;55.60;24.23;;;-0.30;99.90;;;;;;5048402;28;20596;-45
2023/12/03 03:48:44;;;;;;;59.55;24.83;;;-0.30;99.90;;;;;;5048444;28;20473;-47
2023/12/03 03:51:09;;;;;;;50.08;21.13;;;-0.30;99.90;;;;;;5048879;28;20067;-45
2023/12/03 03:53:35;;;;;;;53.15;21.90;;;-0.30;99.90;;;;;;5048552;28;20039;-46
2023/12/03 03:56:08;;;;;;;51.92;21.83;;;-0.30;99.90;;;;;;5047121;28;20021;-46
2023/12/03 03:58:35;;;;;;;47.47;20.85;;;-0.30;99.90;;;;;;5047939;28;20027;-47
2023/12/03 04:01:04;;;;;;;51.30;20.45;;;-0.30;99.90;;;;;;5048445;28;20394;-44
2023/12/03 04:03:30;;;;;;;46.05;21.15;;;-0.30;99.90;;;;;;5048201;28;20513;-45
2023/12/03 04:05:56;;;;;;;54.38;22.67;;;-0.30;99.90;;;;;;5048349;28;20069;-46
2023/12/03 04:08:21;;;;;;;54.78;23.05;;;-0.30;99.90;;;;;;5047794;28;20375;-44
2023/12/03 04:10:48;;;;;;;46.50;19.92;;;-0.30;99.90;;;;;;5050788;28;20029;-46
2023/12/03 04:13:13;;;;;;;54.78;23.77;;;-0.30;99.90;;;;;;5052135;28;20113;-48
2023/12/03 04:15:39;;;;;;;51.13;20.73;;;-0.30;99.90;;;;;;5052146;28;20108;-43
2023/12/03 04:18:05;;;;;;;55.33;22.23;;;-0.30;99.90;;;;;;5051777;28;20094;-46
2023/12/03 04:20:32;;;;;;;62.30;24.30;;;-0.30;99.90;;;;;;5051801;28;20057;-44
2023/12/03 04:22:58;;;;;;;57.03;22.85;;;-0.30;99.90;;;;;;5050820;28;20086;-43
2023/12/03 04:25:23;;;;;;;50.97;20.95;;;-0.30;99.90;;;;;;5052102;28;20025;-44
2023/12/03 04:27:49;;;;;;;46.10;19.05;;;-0.30;99.90;;;;;;5039159;28;20385;-45
2023/12/03 04:30:15;;;;;;;51.50;21.95;;;-0.30;99.90;;;;;;5046957;28;20325;-44
2023/12/03 04:32:40;;;;;;;51.30;21.30;;;-0.30;99.90;;;;;;5031958;28;20568;-46
2023/12/03 04:35:08;;;;;;;54.83;22.73;;;-0.20;99.90;;;;;;5046720;28;20018;-43
2023/12/03 04:37:33;;;;;;;53.42;22.75;;;-0.30;99.90;;;;;;5032435;28;20465;-44
2023/12/03 04:39:59;;;;;;;53.92;23.20;;;-0.20;99.90;;;;;;5045054;28;20025;-45
2023/12/03 04:42:25;;;;;;;45.58;20.25;;;-0.20;99.90;;;;;;5051895;28;20025;-43
2023/12/03 04:44:50;;;;;;;52.72;22.27;;;-0.30;99.90;;;;;;5033199;28;20788;-43
2023/12/03 04:47:16;;;;;;;52.15;23.27;;;-0.30;99.90;;;;;;5033097;28;20502;-44
2023/12/03 04:49:41;;;;;;;55.25;24.33;;;-0.30;99.90;;;;;;5033859;28;20021;-43
2023/12/03 04:52:07;;;;;;;50.13;22.00;;;-0.30;99.90;;;;;;5033277;28;20029;-43
2023/12/03 04:54:33;;;;;;;56.22;22.08;;;-0.30;99.90;;;;;;5049406;28;20092;-44
2023/12/03 04:56:58;;;;;;;47.92;23.00;;;-0.30;99.90;;;;;;5051302;28;20053;-44
2023/12/03 04:59:25;;;;;;;52.40;21.38;;;-0.30;99.90;;;;;;5050995;28;20025;-43
2023/12/03 05:01:50;;;;;;;51.20;22.48;;;-0.20;99.90;;;;;;5051550;28;20028;-43
2023/12/03 05:04:16;;;;;;;53.10;22.88;;;-0.20;99.90;;;;;;5051412;28;20035;-44
2023/12/03 05:06:42;;;;;;;60.50;24.50;;;-0.20;99.90;;;;;;5050883;28;20040;-45
2023/12/03 05:09:09;;;;;;;60.17;24.67;;;-0.20;99.90;;;;;;5051009;28;20029;-45
2023/12/03 05:11:39;;;;;;;55.95;23.75;;;-0.20;99.90;;;;;;5051039;28;20024;-43
2023/12/03 05:14:05;;;;;;;58.13;26.33;;;-0.20;99.90;;;;;;5051190;28;20029;-45
2023/12/03 05:16:31;;;;;;;58.20;26.45;;;-0.20;99.90;;;;;;5050845;28;20036;-44
2023/12/03 05:18:56;;;;;;;55.35;24.63;;;-0.20;99.90;;;;;;5051027;28;20021;-46
2023/12/03 05:21:22;;;;;;;54.15;25.67;;;-0.20;99.90;;;;;;5049962;28;20098;-45
2023/12/03 05:23:48;;;;;;;54.95;25.02;;;-0.20;99.90;;;;;;5051065;28;20075;-45
2023/12/03 05:26:13;;;;;;;54.45;24.77;;;-0.20;99.90;;;;;;5049751;28;20121;-46
2023/12/03 05:28:39;;;;;;;55.58;24.23;;;-0.20;99.90;;;;;;5050574;28;20547;-46
2023/12/03 05:31:05;;;;;;;59.05;26.15;;;-0.10;99.90;;;;;;5049395;28;20245;-48
2023/12/03 05:33:30;;;;;;;62.22;26.02;;;-0.20;99.90;;;;;;5049223;28;20029;-44
2023/12/03 05:35:56;;;;;;;57.65;23.70;;;-0.20;99.90;;;;;;5050697;28;20078;-45
2023/12/03 05:38:22;;;;;;;58.78;25.15;;;-0.20;99.90;;;;;;5050194;28;20147;-44
2023/12/03 05:40:47;;;;;;;58.47;24.65;;;-0.20;99.90;;;;;;5051038;28;20029;-45
2023/12/03 05:43:14;;;;;;;60.63;23.75;;;-0.20;99.90;;;;;;5049487;28;20036;-44
2023/12/03 05:45:40;;;;;;;61.22;25.52;;;-0.20;99.90;;;;;;5050519;28;20031;-46
2023/12/03 05:48:06;;;;;;;56.95;24.00;;;-0.20;99.90;;;;;;5049000;28;20112;-44
2023/12/03 05:50:32;;;;;;;53.38;22.88;;;-0.20;99.90;;;;;;5050256;28;20478;-47
2023/12/03 05:52:58;;;;;;;62.30;25.58;;;-0.20;99.90;;;;;;5050595;28;20108;-48
2023/12/03 05:55:24;;;;;;;60.15;26.27;;;-0.20;99.90;;;;;;5050222;28;20090;-45
2023/12/03 05:57:50;;;;;;;51.30;22.50;;;-0.20;99.90;;;;;;5050161;28;20112;-44
2023/12/03 06:00:16;;;;;;;59.08;24.83;;;-0.10;99.90;;;;;;5048092;28;20029;-45
2023/12/03 06:02:42;;;;;;;64.32;24.27;;;-0.10;99.90;;;;;;5041494;28;20033;-44
2023/12/03 06:05:09;;;;;;;51.85;22.33;;;-0.10;99.90;;;;;;5050075;28;20104;-44
2023/12/03 06:07:34;;;;;;;51.78;23.13;;;-0.20;99.90;;;;;;5049724;28;20085;-48
2023/12/03 06:10:00;;;;;;;62.05;24.85;;;-0.20;99.90;;;;;;5049618;28;20025;-46
2023/12/03 06:12:25;;;;;;;59.17;24.38;;;-0.10;99.90;;;;;;5049698;28;20481;-44
2023/12/03 06:14:51;;;;;;;57.80;25.25;;;-0.10;99.90;;;;;;5050335;28;20385;-46
2023/12/03 06:17:17;;;;;;;65.25;26.83;;;-0.10;99.90;;;;;;5049987;28;20649;-44
2023/12/03 06:19:44;;;;;;;60.72;26.02;;;-0.10;99.90;;;;;;5049247;28;20082;-46
2023/12/03 06:22:09;;;;;;;60.20;26.45;;;-0.10;99.90;;;;;;5050189;28;20469;-44
2023/12/03 06:24:35;;;;;;;57.58;24.65;;;-0.10;99.90;;;;;;5040483;28;20025;-43
2023/12/03 06:27:01;;;;;;;52.33;23.48;;;-0.10;99.90;;;;;;5049145;28;20059;-45
2023/12/03 06:29:27;;;;;;;57.78;24.35;;;-0.10;99.90;;;;;;5039738;28;20116;-45
2023/12/03 06:31:53;;;;;;;64.05;25.77;;;-0.10;99.90;;;;;;5041870;28;20032;-44
2023/12/03 06:34:18;;;;;;;56.25;24.33;;;-0.10;99.90;;;;;;5041832;28;20033;-44
2023/12/03 06:36:44;;;;;;;65.50;26.77;;;-0.10;99.90;;;;;;5048856;28;20598;-44
2023/12/03 06:39:10;;;;;;;60.63;23.95;;;0.00;99.90;;;;;;5041630;28;20522;-45
2023/12/03 06:41:36;;;;;;;55.17;25.13;;;-0.10;99.90;;;;;;5047277;28;20167;-44
2023/12/03 06:44:02;;;;;;;64.63;25.70;;;0.00;99.90;;;;;;5044497;28;20079;-46
2023/12/03 06:46:27;;;;;;;58.10;24.15;;;-0.10;99.90;;;;;;5046243;28;20017;-43
2023/12/03 06:48:54;;;;;;;58.67;27.60;;;0.00;99.90;;;;;;5045537;28;20560;-43
2023/12/03 06:51:20;;;;;;;58.22;24.67;;;-0.10;99.90;;;;;;5045323;28;20486;-43
2023/12/03 06:53:45;;;;;;;60.13;25.75;;;-0.10;99.90;;;;;;5046708;28;20028;-44
2023/12/03 06:56:11;;;;;;;60.00;24.25;;;-0.10;99.90;;;;;;5042616;28;20033;-44
2023/12/03 06:58:37;;;;;;;61.03;24.77;;;-0.10;99.90;;;;;;5048708;28;20063;-44
2023/12/03 07:01:03;;;;;;;60.78;24.02;;;0.00;99.90;;;;;;5049643;28;20390;-45
2023/12/03 07:03:28;;;;;;;62.55;26.13;;;-0.10;99.90;;;;;;5048909;28;20375;-44
2023/12/03 07:05:54;;;;;;;62.13;26.63;;;-0.10;99.90;;;;;;5040455;28;20111;-45
2023/12/03 07:08:20;;;;;;;57.70;24.85;;;-0.10;99.90;;;;;;5033578;28;21094;-45
2023/12/03 07:10:46;;;;;;;63.10;26.02;;;-0.10;99.90;;;;;;5035114;28;20436;-48
2023/12/03 07:13:11;;;;;;;56.10;25.15;;;0.00;99.90;;;;;;5034265;28;20017;-45
2023/12/03 07:15:38;;;;;;;54.78;23.48;;;-0.10;99.90;;;;;;5036216;28;20053;-46
2023/12/03 07:18:04;;;;;;;61.30;24.92;;;-0.10;99.90;;;;;;5033735;28;20014;-44
2023/12/03 07:20:29;;;;;;;55.13;23.05;;;0.00;99.90;;;;;;5033314;28;20040;-47
2023/12/03 07:22:55;;;;;;;68.15;26.95;;;0.00;99.90;;;;;;5035176;28;20025;-47
2023/12/03 07:25:22;;;;;;;66.40;27.45;;;0.00;99.90;;;;;;5037007;28;20599;-44
2023/12/03 07:27:48;;;;;;;60.38;27.63;;;0.00;99.90;;;;;;5048673;28;20032;-45
2023/12/03 07:30:14;;;;;;;58.55;25.25;;;0.00;99.90;;;;;;5047302;28;20025;-47
2023/12/03 07:32:40;;;;;;;54.15;25.40;;;0.00;99.90;;;;;;5048669;28;20091;-44
2023/12/03 07:35:05;;;;;;;62.05;27.27;;;0.10;99.90;;;;;;5048496;28;20496;-44
2023/12/03 07:37:31;;;;;;;65.97;28.05;;;0.10;99.90;;;;;;5048351;28;20025;-45
2023/12/03 07:39:57;;;;;;;60.70;26.83;;;0.10;99.90;;;;;;5045627;28;20514;-45
2023/12/03 07:42:25;;;;;;;56.97;25.65;;;0.10;99.90;;;;;;5039058;28;20067;-46
2023/12/03 07:44:50;;;;;;;60.67;27.02;;;0.10;99.90;;;;;;5047681;28;20520;-46
2023/12/03 07:47:16;;;;;;;63.05;27.88;;;0.10;99.90;;;;;;5063738;28;20060;-44
2023/12/03 07:49:43;;;;;;;63.92;27.25;;;0.10;99.90;;;;;;5047991;28;20029;-50
2023/12/03 07:52:08;;;;;;;56.03;25.23;;;0.20;99.90;;;;;;5048340;28;20024;-46
2023/12/03 07:54:34;;;;;;;63.65;27.27;;;0.10;99.90;;;;;;5048444;28;20482;-45
2023/12/03 07:57:00;;;;;;;61.55;26.45;;;0.20;99.90;;;;;;5046380;28;20486;-45
2023/12/03 07:59:26;;;;;;;64.68;28.02;;;0.20;99.90;;;;;;5045526;28;20025;-45
2023/12/03 08:01:51;;;;;;;59.35;27.05;;;0.20;99.90;;;;;;5048367;28;20021;-43
2023/12/03 08:04:17;;;;;;;60.00;26.83;;;0.20;99.90;;;;;;5044478;28;20021;-45
2023/12/03 08:06:43;;;;;;;57.92;26.05;;;0.30;99.90;;;;;;5047755;28;20059;-45
2023/12/03 08:09:10;;;;;;;60.50;28.13;;;0.30;99.90;;;;;;5048267;28;20025;-44
2023/12/03 08:11:37;;;;;;;64.50;28.40;;;0.30;99.90;;;;;;5048445;28;20021;-47
2023/12/03 08:14:03;;;;;;;52.83;26.70;;;0.30;99.90;;;;;;5048008;28;20025;-43
2023/12/03 08:16:28;;;;;;;66.60;28.02;;;0.40;99.90;;;;;;5042617;28;20070;-43
2023/12/03 08:18:54;;;;;;;59.45;27.08;;;0.30;99.90;;;;;;5047862;28;20466;-44
2023/12/03 08:21:20;;;;;;;66.63;28.05;;;0.30;99.90;;;;;;5048142;28;20510;-44
2023/12/03 08:23:46;;;;;;;60.00;25.98;;;0.30;99.90;;;;;;5047773;28;20027;-44
2023/12/03 08:26:12;;;;;;;65.95;29.35;;;0.40;99.90;;;;;;5047759;28;20048;-46
2023/12/03 08:28:37;;;;;;;53.55;25.20;;;0.40;99.90;;;;;;5046580;28;20032;-45
2023/12/03 08:31:03;;;;;;;59.67;27.50;;;0.40;99.90;;;;;;5046355;28;20029;-48
2023/12/03 08:33:29;;;;;;;65.05;28.92;;;0.40;99.90;;;;;;5046323;28;20093;-46
2023/12/03 08:35:57;;;;;;;62.78;27.50;;;0.50;99.90;;;;;;5046485;28;20052;-44
2023/12/03 08:38:22;;;;;;;64.88;27.70;;;0.50;99.90;;;;;;5045961;28;20028;-46
2023/12/03 08:40:48;;;;;;;62.20;28.50;;;0.60;99.90;;;;;;5046185;28;20029;-45
2023/12/03 08:43:15;;;;;;;62.70;26.27;;;0.60;99.90;;;;;;5046771;28;20051;-48
2023/12/03 08:45:41;;;;;;;59.40;28.08;;;0.60;99.90;;;;;;5046663;28;20029;-44
2023/12/03 08:48:07;;;;;;;71.47;30.23;;;0.70;99.90;;;;;;5047790;28;20441;-47
2023/12/03 08:50:32;;;;;;;77.13;33.78;;;0.70;99.90;;;;;;5047433;28;20356;-45
2023/12/03 08:52:58;;;;;;;71.38;29.00;;;0.80;99.90;;;;;;5047873;28;20024;-44
2023/12/03 08:55:24;;;;;;;65.68;28.65;;;0.80;99.90;;;;;;5048446;28;20021;-46
2023/12/03 08:57:50;;;;;;;74.97;31.05;;;0.80;99.90;;;;;;5051733;28;20404;-47
2023/12/03 09:00:17;;;;;;;69.60;31.40;;;0.80;99.90;;;;;;5051124;28;20543;-46
2023/12/03 09:02:46;;;;;;;80.43;31.65;;;0.90;99.90;;;;;;5051375;28;20082;-47
2023/12/03 09:05:12;;;;;;;63.38;27.83;;;0.90;99.90;;;;;;5037209;28;20032;-45
2023/12/03 09:07:38;;;;;;;67.10;29.98;;;0.90;99.90;;;;;;5033073;28;20110;-47
2023/12/03 09:10:05;;;;;;;69.88;30.98;;;0.90;99.90;;;;;;5044820;28;20025;-46
2023/12/03 09:12:30;;;;;;;82.18;32.88;;;0.90;99.90;;;;;;5047769;28;20036;-44
2023/12/03 09:14:56;;;;;;;73.63;32.00;;;0.90;99.90;;;;;;5031654;28;20045;-49
2023/12/03 09:17:22;;;;;;;69.45;29.73;;;0.90;99.90;;;;;;5044159;28;20036;-44
2023/12/03 09:19:47;;;;;;;80.05;33.03;;;0.90;99.90;;;;;;5050757;28;20098;-46
2023/12/03 09:22:13;;;;;;;77.38;31.60;;;0.90;99.90;;;;;;5047787;28;20060;-46
2023/12/03 09:24:38;;;;;;;73.13;31.63;;;1.00;99.90;;;;;;5066119;28;20043;-46
2023/12/03 09:27:04;;;;;;;76.60;34.03;;;0.90;99.90;;;;;;5050982;28;20056;-47
2023/12/03 09:29:30;;;;;;;75.82;32.03;;;1.00;99.90;;;;;;5050669;28;20104;-46
2023/12/03 09:31:56;;;;;;;66.65;31.60;;;1.00;99.90;;;;;;5050819;28;20032;-48
2023/12/03 09:34:21;;;;;;;66.97;30.80;;;1.00;99.90;;;;;;5050467;28;20052;-48
2023/12/03 09:36:47;;;;;;;72.20;31.23;;;1.00;99.90;;;;;;5033426;28;20033;-46
2023/12/03 09:39:12;;;;;;;62.83;30.10;;;1.00;99.90;;;;;;5045018;28;20039;-45
2023/12/03 09:41:46;;;;;;;63.53;30.25;;;1.00;99.90;;;;;;5049246;28;20637;-44
2023/12/03 09:44:21;;;;;;;69.35;31.98;;;1.00;99.90;;;;;;5049422;28;20086;-47
2023/12/03 09:46:50;;;;;;;64.30;29.90;;;1.00;99.90;;;;;;5065861;28;20091;-48
2023/12/03 09:49:19;;;;;;;63.55;30.15;;;1.10;99.90;;;;;;5049914;28;20017;-46
2023/12/03 09:51:46;;;;;;;68.72;31.60;;;1.10;99.90;;;;;;5050124;28;20052;-45
2023/12/03 09:54:11;;;;;;;60.10;28.67;;;1.10;99.90;;;;;;5050274;28;20066;-48
2023/12/03 09:56:40;;;;;;;65.30;30.55;;;1.10;99.90;;;;;;5042144;28;20545;-47
2023/12/03 09:59:08;;;;;;;68.22;31.10;;;1.10;99.90;;;;;;5043446;28;20024;-49
2023/12/03 10:01:38;;;;;;;71.60;30.67;;;1.20;99.90;;;;;;5045783;28;20418;-46
2023/12/03 10:04:04;;;;;;;59.08;28.33;;;1.20;99.90;;;;;;5050144;28;20029;-47
2023/12/03 10:06:34;;;;;;;70.53;33.78;;;1.20;99.90;;;;;;5045502;28;20026;-47
2023/12/03 10:09:00;;;;;;;73.63;32.05;;;1.20;99.90;;;;;;5047535;28;20032;-48
2023/12/03 10:11:28;;;;;;;73.82;34.35;;;1.20;99.90;;;;;;5045772;28;20018;-45
2023/12/03 10:13:56;;;;;;;68.68;32.10;;;1.20;99.90;;;;;;5050223;28;20025;-44
2023/12/03 10:16:22;;;;;;;69.97;31.60;;;1.10;99.90;;;;;;5049863;28;20199;-47
2023/12/03 10:18:50;;;;;;;66.72;31.35;;;1.10;99.90;;;;;;5049765;28;20044;-45
2023/12/03 10:21:15;;;;;;;70.10;32.47;;;1.10;99.90;;;;;;5050052;28;20024;-47
2023/12/03 10:23:41;;;;;;;67.22;31.10;;;1.20;99.90;;;;;;5048600;28;20021;-44
2023/12/03 10:26:11;;;;;;;62.03;29.48;;;1.20;99.90;;;;;;5049954;28;20029;-48
2023/12/03 10:28:37;;;;;;;49.60;22.73;;;1.20;99.90;;;;;;5049280;28;20106;-50
2023/12/03 10:31:02;;;;;;;65.53;31.42;;;1.30;99.90;;;;;;5049693;28;20067;-46
2023/12/03 10:33:28;;;;;;;59.92;29.98;;;1.30;99.90;;;;;;5049645;28;20039;-46
2023/12/03 10:36:04;;;;;;;62.45;28.52;;;1.40;99.90;;;;;;5049617;28;20029;-45
2023/12/03 10:38:36;;;;;;;58.20;28.40;;;1.50;99.90;;;;;;5049263;28;20021;-45
2023/12/03 10:41:07;;;;;;;59.38;29.17;;;1.50;99.90;;;;;;5049787;28;20025;-45
2023/12/03 10:43:38;;;;;;;62.08;28.30;;;1.60;99.90;;;;;;5048401;28;20032;-45
2023/12/03 10:46:13;;;;;;;61.17;30.25;;;1.50;99.90;;;;;;5049504;28;20086;-45
2023/12/03 10:48:39;;;;;;;67.75;31.25;;;1.60;99.90;;;;;;5049110;28;20025;-45
2023/12/03 10:51:09;;;;;;;62.78;28.85;;;1.60;99.90;;;;;;5049472;28;20045;-46
2023/12/03 10:53:36;;;;;;;60.35;29.77;;;1.50;99.90;;;;;;5049092;28;20333;-45
2023/12/03 10:56:04;;;;;;;65.35;30.63;;;1.60;99.90;;;;;;5049265;28;20406;-45
2023/12/03 10:58:31;;;;;;;65.05;30.70;;;1.60;99.90;;;;;;5047354;28;20175;-48
2023/12/03 11:01:13;;;;;;;61.65;29.20;;;1.60;99.90;;;;;;5047847;28;20445;-44
2023/12/03 11:03:57;;;;;;;58.78;27.70;;;1.50;99.90;;;;;;5048874;28;20504;-43
2023/12/03 11:06:24;;;;;;;55.65;28.50;;;1.80;99.90;;;;;;5048948;28;20448;-45
2023/12/03 11:08:53;;;;;;;55.50;27.08;;;2.10;99.90;;;;;;5048764;28;20017;-46
2023/12/03 11:11:23;;;;;;;51.00;26.58;;;2.10;99.90;;;;;;5048878;28;20029;-47
2023/12/03 11:13:57;;;;;;;52.08;27.13;;;2.20;99.90;;;;;;5048862;28;20398;-44
2023/12/03 11:16:27;;;;;;;51.13;25.92;;;2.20;99.90;;;;;;5048680;28;20490;-44
2023/12/03 11:19:05;;;;;;;51.38;27.35;;;2.30;99.90;;;;;;5049008;28;20021;-47
2023/12/03 11:21:46;;;;;;;48.47;24.48;;;2.40;99.90;;;;;;5048704;28;20509;-44
2023/12/03 11:24:33;;;;;;;54.17;25.98;;;2.60;99.90;;;;;;5048847;28;20037;-46
2023/12/03 11:26:59;;;;;;;52.08;26.95;;;2.80;99.90;;;;;;5048833;28;20090;-46
2023/12/03 11:29:50;;;;;;;46.15;25.20;;;3.00;99.90;;;;;;5048318;28;20040;-45
2023/12/03 11:32:16;;;;;;;;;;;3.10;99.90;;;;;;5049508;28;20324;-46
2023/12/03 11:34:43;;;;;;;46.60;23.50;;;3.10;99.90;;;;;;5048481;28;19912;-46
2023/12/03 11:37:09;;;;;;;46.42;25.13;;;3.10;99.90;;;;;;5048396;28;20449;-46
2023/12/03 11:39:46;;;;;;;49.33;25.67;;;3.10;99.90;;;;;;5048136;28;20052;-45
2023/12/03 11:42:13;;;;;;;44.17;23.25;;;3.10;99.90;;;;;;5048734;28;20017;-45
2023/12/03 11:44:39;;;;;;;41.42;23.70;;;3.00;99.90;;;;;;5047290;28;20105;-45
2023/12/03 11:47:07;;;;;;;43.10;23.52;;;3.00;99.90;;;;;;5048657;28;20100;-45
2023/12/03 11:49:35;;;;;;;43.92;23.05;;;2.90;99.90;;;;;;5048706;28;20017;-46
2023/12/03 11:52:01;;;;;;;43.97;25.30;;;2.80;99.90;;;;;;5048656;28;20032;-47
2023/12/03 11:54:53;;;;;;;49.30;25.05;;;2.80;99.90;;;;;;5048623;28;20021;-49
2023/12/03 11:57:19;;;;;;;48.50;23.65;;;2.60;99.90;;;;;;5048272;28;20029;-48
2023/12/03 11:59:45;;;;;;;49.72;23.25;;;2.70;99.90;;;;;;5048532;28;20029;-47
2023/12/03 12:02:11;;;;;;;48.90;25.52;;;2.60;99.90;;;;;;5048894;28;20035;-44
2023/12/03 12:04:37;;;;;;;52.40;25.90;;;2.50;99.90;;;;;;5048280;28;20043;-48
2023/12/03 12:07:16;;;;;;;46.95;25.13;;;2.40;99.90;;;;;;5048147;28;20541;-47
2023/12/03 12:09:43;;;;;;;47.38;23.33;;;2.20;99.90;;;;;;5048277;28;20742;-47
2023/12/03 12:12:08;;;;;;;50.55;24.05;;;2.10;99.90;;;;;;5048286;28;20110;-47
2023/12/03 12:14:34;;;;;;;50.92;24.60;;;2.10;99.90;;;;;;5048183;28;20052;-45
2023/12/03 12:17:00;;;;;;;54.47;24.80;;;2.00;99.90;;;;;;5047948;28;20233;-46
2023/12/03 12:19:25;;;;;;;50.33;25.42;;;2.00;99.90;;;;;;5047926;28;20344;-47
2023/12/03 12:21:51;;;;;;;54.28;25.17;;;2.00;99.90;;;;;;5048732;28;20124;-49
2023/12/03 12:24:17;;;;;;;57.03;25.60;;;1.80;99.90;;;;;;5046857;28;20027;-49
2023/12/03 12:26:42;;;;;;;58.25;26.65;;;1.90;99.90;;;;;;5047934;28;20087;-46